sensor_id;sensor_type;location;lat;lon;timestamp;temperature;humidity
82782;DHT22;72517;47.260;11.422;2023-09-19T00:00:46;16.50;99.90
82782;DHT22;72517;47.260;11.422;2023-09-19T00:03:14;16.50;99.90
82782;DHT22;72517;47.260;11.422;2023-09-19T00:05:41;16.40;99.90
82782;DHT22;72517;47.260;11.422;2023-09-19T00:08:09;16.40;99.90
82782;DHT22;72517;47.260;11.422;2023-09-19T00:10:38;16.40;99.90
82782;DHT22;72517;47.260;11.422;2023-09-19T00:13:06;16.50;99.90
82782;DHT22;72517;47.260;11.422;2023-09-19T00:15:41;16.50;99.90
82782;DHT22;72517;47.260;11.422;2023-09-19T00:18:08;16.50;99.90
82782;DHT22;72517;47.260;11.422;2023-09-19T00:20:38;16.50;99.90
82782;DHT22;72517;47.260;11.422;2023-09-19T00:23:07;16.50;99.90
82782;DHT22;72517;47.260;11.422;2023-09-19T00:25:35;16.50;99.90
82782;DHT22;72517;47.260;11.422;2023-09-19T00:28:03;16.50;99.90
82782;DHT22;72517;47.260;11.422;2023-09-19T00:30:30;16.50;99.90
82782;DHT22;72517;47.260;11.422;2023-09-19T00:32:57;16.40;99.90
82782;DHT22;72517;47.260;11.422;2023-09-19T00:35:23;16.30;99.90
82782;DHT22;72517;47.260;11.422;2023-09-19T00:37:51;16.30;99.90
82782;DHT22;72517;47.260;11.422;2023-09-19T00:40:18;16.30;99.90
82782;DHT22;72517;47.260;11.422;2023-09-19T00:42:47;16.30;99.90
82782;DHT22;72517;47.260;11.422;2023-09-19T00:45:16;16.30;99.90
82782;DHT22;72517;47.260;11.422;2023-09-19T00:47:50;16.30;99.90
82782;DHT22;72517;47.260;11.422;2023-09-19T00:50:23;16.40;99.90
82782;DHT22;72517;47.260;11.422;2023-09-19T00:52:54;16.30;99.90
82782;DHT22;72517;47.260;11.422;2023-09-19T00:55:21;16.20;99.90
82782;DHT22;72517;47.260;11.422;2023-09-19T00:57:48;16.20;99.90
82782;DHT22;72517;47.260;11.422;2023-09-19T01:00:15;16.20;99.90
82782;DHT22;72517;47.260;11.422;2023-09-19T01:02:44;16.20;99.90
82782;DHT22;72517;47.260;11.422;2023-09-19T01:05:12;16.30;99.90
82782;DHT22;72517;47.260;11.422;2023-09-19T01:07:39;16.30;99.90
82782;DHT22;72517;47.260;11.422;2023-09-19T01:10:12;16.30;99.90
82782;DHT22;72517;47.260;11.422;2023-09-19T01:12:58;16.30;99.90
82782;DHT22;72517;47.260;11.422;2023-09-19T01:15:38;16.30;99.90
82782;DHT22;72517;47.260;11.422;2023-09-19T01:20:45;16.50;99.90
82782;DHT22;72517;47.260;11.422;2023-09-19T01:26:17;16.50;99.90
82782;DHT22;72517;47.260;11.422;2023-09-19T01:31:33;16.50;99.90
82782;DHT22;72517;47.260;11.422;2023-09-19T01:34:02;16.50;99.90
82782;DHT22;72517;47.260;11.422;2023-09-19T01:36:32;16.60;99.90
82782;DHT22;72517;47.260;11.422;2023-09-19T01:39:04;16.60;99.90
82782;DHT22;72517;47.260;11.422;2023-09-19T01:44:09;16.60;99.90
82782;DHT22;72517;47.260;11.422;2023-09-19T01:46:41;16.60;99.90
82782;DHT22;72517;47.260;11.422;2023-09-19T01:49:22;16.60;99.90
82782;DHT22;72517;47.260;11.422;2023-09-19T01:52:09;16.60;99.90
82782;DHT22;72517;47.260;11.422;2023-09-19T01:54:46;16.50;99.90
82782;DHT22;72517;47.260;11.422;2023-09-19T01:57:29;16.60;99.90
82782;DHT22;72517;47.260;11.422;2023-09-19T02:00:05;16.60;99.90
82782;DHT22;72517;47.260;11.422;2023-09-19T02:02:37;16.60;99.90
82782;DHT22;72517;47.260;11.422;2023-09-19T02:05:05;16.60;99.90
82782;DHT22;72517;47.260;11.422;2023-09-19T02:07:32;16.60;99.90
82782;DHT22;72517;47.260;11.422;2023-09-19T02:09:59;16.70;99.90
82782;DHT22;72517;47.260;11.422;2023-09-19T02:12:29;16.70;99.90
82782;DHT22;72517;47.260;11.422;2023-09-19T02:14:56;16.70;99.90
82782;DHT22;72517;47.260;11.422;2023-09-19T02:17:24;16.70;99.90
82782;DHT22;72517;47.260;11.422;2023-09-19T02:19:53;16.60;99.90
82782;DHT22;72517;47.260;11.422;2023-09-19T02:22:23;16.60;99.90
82782;DHT22;72517;47.260;11.422;2023-09-19T02:24:50;16.60;99.90
82782;DHT22;72517;47.260;11.422;2023-09-19T02:27:18;16.60;99.90
82782;DHT22;72517;47.260;11.422;2023-09-19T02:29:44;16.60;99.90
82782;DHT22;72517;47.260;11.422;2023-09-19T02:32:11;16.60;99.90
82782;DHT22;72517;47.260;11.422;2023-09-19T02:34:38;16.60;99.90
82782;DHT22;72517;47.260;11.422;2023-09-19T02:37:06;16.60;99.90
82782;DHT22;72517;47.260;11.422;2023-09-19T02:39:34;16.60;99.90
82782;DHT22;72517;47.260;11.422;2023-09-19T02:42:01;16.60;99.90
82782;DHT22;72517;47.260;11.422;2023-09-19T02:44:29;16.60;99.90
82782;DHT22;72517;47.260;11.422;2023-09-19T02:46:56;16.50;99.90
82782;DHT22;72517;47.260;11.422;2023-09-19T02:49:24;16.60;99.90
82782;DHT22;72517;47.260;11.422;2023-09-19T02:51:50;16.60;99.90
82782;DHT22;72517;47.260;11.422;2023-09-19T02:54:17;16.60;99.90
82782;DHT22;72517;47.260;11.422;2023-09-19T02:56:44;16.50;99.90
82782;DHT22;72517;47.260;11.422;2023-09-19T02:59:12;16.50;99.90
82782;DHT22;72517;47.260;11.422;2023-09-19T03:01:43;16.50;99.90
82782;DHT22;72517;47.260;11.422;2023-09-19T03:04:11;16.50;99.90
82782;DHT22;72517;47.260;11.422;2023-09-19T03:06:39;16.50;99.90
82782;DHT22;72517;47.260;11.422;2023-09-19T03:09:06;16.50;99.90
82782;DHT22;72517;47.260;11.422;2023-09-19T03:11:38;16.50;99.90
82782;DHT22;72517;47.260;11.422;2023-09-19T03:14:05;16.50;99.90
82782;DHT22;72517;47.260;11.422;2023-09-19T03:16:32;16.40;99.90
82782;DHT22;72517;47.260;11.422;2023-09-19T03:18:59;16.40;99.90
82782;DHT22;72517;47.260;11.422;2023-09-19T03:21:26;16.30;99.90
82782;DHT22;72517;47.260;11.422;2023-09-19T03:23:55;16.30;99.90
82782;DHT22;72517;47.260;11.422;2023-09-19T03:26:21;16.30;99.90
82782;DHT22;72517;47.260;11.422;2023-09-19T03:28:48;16.20;99.90
82782;DHT22;72517;47.260;11.422;2023-09-19T03:31:15;16.20;99.90
82782;DHT22;72517;47.260;11.422;2023-09-19T03:33:42;16.20;99.90
82782;DHT22;72517;47.260;11.422;2023-09-19T03:36:09;16.30;99.90
82782;DHT22;72517;47.260;11.422;2023-09-19T03:38:36;16.30;99.90
82782;DHT22;72517;47.260;11.422;2023-09-19T03:41:03;16.30;99.90
82782;DHT22;72517;47.260;11.422;2023-09-19T03:43:31;16.30;99.90
82782;DHT22;72517;47.260;11.422;2023-09-19T03:46:01;16.20;99.90
82782;DHT22;72517;47.260;11.422;2023-09-19T03:48:29;16.10;99.90
82782;DHT22;72517;47.260;11.422;2023-09-19T03:50:56;16.00;99.90
82782;DHT22;72517;47.260;11.422;2023-09-19T03:53:23;16.00;99.90
82782;DHT22;72517;47.260;11.422;2023-09-19T03:55:50;16.00;99.90
82782;DHT22;72517;47.260;11.422;2023-09-19T03:58:16;16.00;99.90
82782;DHT22;72517;47.260;11.422;2023-09-19T04:00:43;16.00;99.90
82782;DHT22;72517;47.260;11.422;2023-09-19T04:03:10;15.90;99.90
82782;DHT22;72517;47.260;11.422;2023-09-19T04:05:45;16.00;99.90
82782;DHT22;72517;47.260;11.422;2023-09-19T04:08:13;16.00;99.90
82782;DHT22;72517;47.260;11.422;2023-09-19T04:10:42;16.10;99.90
82782;DHT22;72517;47.260;11.422;2023-09-19T04:13:09;16.10;99.90
82782;DHT22;72517;47.260;11.422;2023-09-19T04:15:36;16.20;99.90
82782;DHT22;72517;47.260;11.422;2023-09-19T04:18:05;16.20;99.90
82782;DHT22;72517;47.260;11.422;2023-09-19T04:20:32;16.20;99.90
82782;DHT22;72517;47.260;11.422;2023-09-19T04:22:59;16.20;99.90
82782;DHT22;72517;47.260;11.422;2023-09-19T04:25:26;16.20;99.90
82782;DHT22;72517;47.260;11.422;2023-09-19T04:27:53;16.20;99.90
82782;DHT22;72517;47.260;11.422;2023-09-19T04:30:20;16.30;99.90
82782;DHT22;72517;47.260;11.422;2023-09-19T04:32:47;16.20;99.90
82782;DHT22;72517;47.260;11.422;2023-09-19T04:35:16;16.30;99.90
82782;DHT22;72517;47.260;11.422;2023-09-19T04:37:42;16.30;99.90
82782;DHT22;72517;47.260;11.422;2023-09-19T04:40:10;16.20;99.90
82782;DHT22;72517;47.260;11.422;2023-09-19T04:42:40;16.20;99.90
82782;DHT22;72517;47.260;11.422;2023-09-19T04:45:07;16.20;99.90
82782;DHT22;72517;47.260;11.422;2023-09-19T04:47:38;16.20;99.90
82782;DHT22;72517;47.260;11.422;2023-09-19T04:50:07;16.20;99.90
82782;DHT22;72517;47.260;11.422;2023-09-19T04:52:38;16.30;99.90
82782;DHT22;72517;47.260;11.422;2023-09-19T04:55:05;16.30;99.90
82782;DHT22;72517;47.260;11.422;2023-09-19T04:57:32;16.30;99.90
82782;DHT22;72517;47.260;11.422;2023-09-19T04:59:59;16.30;99.90
82782;DHT22;72517;47.260;11.422;2023-09-19T05:02:29;16.30;99.90
82782;DHT22;72517;47.260;11.422;2023-09-19T05:04:57;16.30;99.90
82782;DHT22;72517;47.260;11.422;2023-09-19T05:07:25;16.30;99.90
82782;DHT22;72517;47.260;11.422;2023-09-19T05:09:52;16.30;99.90
82782;DHT22;72517;47.260;11.422;2023-09-19T05:12:19;16.20;99.90
82782;DHT22;72517;47.260;11.422;2023-09-19T05:14:46;16.40;99.90
82782;DHT22;72517;47.260;11.422;2023-09-19T05:17:13;16.40;99.90
82782;DHT22;72517;47.260;11.422;2023-09-19T05:19:42;16.40;99.90
82782;DHT22;72517;47.260;11.422;2023-09-19T05:22:09;16.40;99.90
82782;DHT22;72517;47.260;11.422;2023-09-19T05:24:38;16.40;99.90
82782;DHT22;72517;47.260;11.422;2023-09-19T05:27:05;16.30;99.90
82782;DHT22;72517;47.260;11.422;2023-09-19T05:29:33;16.30;99.90
82782;DHT22;72517;47.260;11.422;2023-09-19T05:32:00;16.30;99.90
82782;DHT22;72517;47.260;11.422;2023-09-19T05:34:26;16.30;99.90
82782;DHT22;72517;47.260;11.422;2023-09-19T05:36:55;16.30;99.90
82782;DHT22;72517;47.260;11.422;2023-09-19T05:39:22;16.40;99.90
82782;DHT22;72517;47.260;11.422;2023-09-19T05:41:49;16.50;99.90
82782;DHT22;72517;47.260;11.422;2023-09-19T05:44:16;16.60;99.90
82782;DHT22;72517;47.260;11.422;2023-09-19T05:46:42;16.70;99.90
82782;DHT22;72517;47.260;11.422;2023-09-19T05:49:10;16.60;99.90
82782;DHT22;72517;47.260;11.422;2023-09-19T05:51:37;16.60;99.90
82782;DHT22;72517;47.260;11.422;2023-09-19T05:54:04;16.60;99.90
82782;DHT22;72517;47.260;11.422;2023-09-19T05:56:31;16.70;99.90
82782;DHT22;72517;47.260;11.422;2023-09-19T05:58:58;16.70;99.90
82782;DHT22;72517;47.260;11.422;2023-09-19T06:01:25;16.70;99.90
82782;DHT22;72517;47.260;11.422;2023-09-19T06:03:52;16.80;99.90
82782;DHT22;72517;47.260;11.422;2023-09-19T06:06:19;16.90;99.90
82782;DHT22;72517;47.260;11.422;2023-09-19T06:08:47;17.00;99.90
82782;DHT22;72517;47.260;11.422;2023-09-19T06:11:16;17.10;99.90
82782;DHT22;72517;47.260;11.422;2023-09-19T06:13:46;17.20;99.90
82782;DHT22;72517;47.260;11.422;2023-09-19T06:16:13;17.30;99.90
82782;DHT22;72517;47.260;11.422;2023-09-19T06:18:40;17.50;99.90
82782;DHT22;72517;47.260;11.422;2023-09-19T06:21:06;17.50;99.90
82782;DHT22;72517;47.260;11.422;2023-09-19T06:23:34;17.60;99.90
82782;DHT22;72517;47.260;11.422;2023-09-19T06:26:01;17.70;99.90
82782;DHT22;72517;47.260;11.422;2023-09-19T06:28:28;17.70;99.90
82782;DHT22;72517;47.260;11.422;2023-09-19T06:30:55;17.80;99.90
82782;DHT22;72517;47.260;11.422;2023-09-19T06:33:22;17.80;99.90
82782;DHT22;72517;47.260;11.422;2023-09-19T06:35:49;17.80;99.90
82782;DHT22;72517;47.260;11.422;2023-09-19T06:38:18;17.80;99.90
82782;DHT22;72517;47.260;11.422;2023-09-19T06:40:45;17.80;99.90
82782;DHT22;72517;47.260;11.422;2023-09-19T06:43:12;17.70;99.90
82782;DHT22;72517;47.260;11.422;2023-09-19T06:45:39;17.80;99.90
82782;DHT22;72517;47.260;11.422;2023-09-19T06:48:08;17.80;99.90
82782;DHT22;72517;47.260;11.422;2023-09-19T06:50:35;17.90;99.90
82782;DHT22;72517;47.260;11.422;2023-09-19T06:53:04;17.90;99.90
82782;DHT22;72517;47.260;11.422;2023-09-19T06:55:30;18.00;99.90
82782;DHT22;72517;47.260;11.422;2023-09-19T06:57:57;18.20;99.90
82782;DHT22;72517;47.260;11.422;2023-09-19T07:00:24;18.30;99.90
82782;DHT22;72517;47.260;11.422;2023-09-19T07:02:58;18.40;99.90
82782;DHT22;72517;47.260;11.422;2023-09-19T07:05:30;18.60;99.90
82782;DHT22;72517;47.260;11.422;2023-09-19T07:07:58;18.70;99.90
82782;DHT22;72517;47.260;11.422;2023-09-19T07:10:26;18.90;99.90
82782;DHT22;72517;47.260;11.422;2023-09-19T07:13:01;19.00;99.90
82782;DHT22;72517;47.260;11.422;2023-09-19T07:15:32;19.10;99.90
82782;DHT22;72517;47.260;11.422;2023-09-19T07:18:01;19.10;99.90
82782;DHT22;72517;47.260;11.422;2023-09-19T07:20:28;19.10;99.90
82782;DHT22;72517;47.260;11.422;2023-09-19T07:22:57;19.30;99.00
82782;DHT22;72517;47.260;11.422;2023-09-19T07:25:29;19.50;98.00
82782;DHT22;72517;47.260;11.422;2023-09-19T07:27:58;19.70;96.80
82782;DHT22;72517;47.260;11.422;2023-09-19T07:30:26;20.20;95.80
82782;DHT22;72517;47.260;11.422;2023-09-19T07:32:53;21.00;94.30
82782;DHT22;72517;47.260;11.422;2023-09-19T07:35:20;21.50;91.90
82782;DHT22;72517;47.260;11.422;2023-09-19T07:37:48;21.60;88.80
82782;DHT22;72517;47.260;11.422;2023-09-19T07:40:17;21.60;86.10
82782;DHT22;72517;47.260;11.422;2023-09-19T07:42:44;21.60;85.20
82782;DHT22;72517;47.260;11.422;2023-09-19T07:45:12;21.50;83.90
82782;DHT22;72517;47.260;11.422;2023-09-19T07:47:49;21.30;83.80
82782;DHT22;72517;47.260;11.422;2023-09-19T07:50:17;21.20;83.50
82782;DHT22;72517;47.260;11.422;2023-09-19T07:52:48;21.50;83.50
82782;DHT22;72517;47.260;11.422;2023-09-19T07:55:16;22.50;83.90
82782;DHT22;72517;47.260;11.422;2023-09-19T07:57:45;23.70;80.20
82782;DHT22;72517;47.260;11.422;2023-09-19T08:00:12;24.10;75.00
82782;DHT22;72517;47.260;11.422;2023-09-19T08:02:40;24.10;72.50
82782;DHT22;72517;47.260;11.422;2023-09-19T08:05:11;24.00;72.80
82782;DHT22;72517;47.260;11.422;2023-09-19T08:07:43;23.80;72.20
82782;DHT22;72517;47.260;11.422;2023-09-19T08:10:14;23.70;72.60
82782;DHT22;72517;47.260;11.422;2023-09-19T08:12:46;23.60;71.80
82782;DHT22;72517;47.260;11.422;2023-09-19T08:15:18;23.50;71.20
82782;DHT22;72517;47.260;11.422;2023-09-19T08:17:46;23.30;71.20
82782;DHT22;72517;47.260;11.422;2023-09-19T08:20:13;23.00;71.00
82782;DHT22;72517;47.260;11.422;2023-09-19T08:22:43;22.80;71.50
82782;DHT22;72517;47.260;11.422;2023-09-19T08:25:13;22.50;72.60
82782;DHT22;72517;47.260;11.422;2023-09-19T08:27:43;22.20;73.60
82782;DHT22;72517;47.260;11.422;2023-09-19T08:30:14;21.80;74.60
82782;DHT22;72517;47.260;11.422;2023-09-19T08:32:41;21.60;75.50
82782;DHT22;72517;47.260;11.422;2023-09-19T08:35:10;21.40;76.00
82782;DHT22;72517;47.260;11.422;2023-09-19T08:37:37;21.50;76.90
82782;DHT22;72517;47.260;11.422;2023-09-19T08:40:04;21.50;77.20
82782;DHT22;72517;47.260;11.422;2023-09-19T08:42:53;21.50;77.40
82782;DHT22;72517;47.260;11.422;2023-09-19T08:45:24;21.50;76.70
82782;DHT22;72517;47.260;11.422;2023-09-19T08:48:14;21.50;75.80
82782;DHT22;72517;47.260;11.422;2023-09-19T08:50:51;21.40;76.30
82782;DHT22;72517;47.260;11.422;2023-09-19T08:53:47;21.40;77.10
82782;DHT22;72517;47.260;11.422;2023-09-19T08:56:18;21.40;77.40
82782;DHT22;72517;47.260;11.422;2023-09-19T08:58:50;21.30;77.60
82782;DHT22;72517;47.260;11.422;2023-09-19T09:01:19;21.40;78.30
82782;DHT22;72517;47.260;11.422;2023-09-19T09:03:51;21.50;79.00
82782;DHT22;72517;47.260;11.422;2023-09-19T09:06:22;23.90;76.80
82782;DHT22;72517;47.260;11.422;2023-09-19T09:08:53;26.50;70.70
82782;DHT22;72517;47.260;11.422;2023-09-19T09:11:20;28.90;64.50
82782;DHT22;72517;47.260;11.422;2023-09-19T09:13:48;30.80;58.10
82782;DHT22;72517;47.260;11.422;2023-09-19T09:16:15;33.20;54.00
82782;DHT22;72517;47.260;11.422;2023-09-19T09:18:47;35.50;50.30
82782;DHT22;72517;47.260;11.422;2023-09-19T09:21:18;37.60;47.00
82782;DHT22;72517;47.260;11.422;2023-09-19T09:23:48;39.90;42.90
82782;DHT22;72517;47.260;11.422;2023-09-19T09:26:15;41.80;40.20
82782;DHT22;72517;47.260;11.422;2023-09-19T09:28:46;43.60;37.90
82782;DHT22;72517;47.260;11.422;2023-09-19T09:31:24;44.80;35.30
82782;DHT22;72517;47.260;11.422;2023-09-19T09:33:55;45.80;33.50
82782;DHT22;72517;47.260;11.422;2023-09-19T09:36:39;46.90;31.60
82782;DHT22;72517;47.260;11.422;2023-09-19T09:39:07;45.60;30.60
82782;DHT22;72517;47.260;11.422;2023-09-19T09:41:43;46.10;31.50
82782;DHT22;72517;47.260;11.422;2023-09-19T09:44:15;44.50;31.80
82782;DHT22;72517;47.260;11.422;2023-09-19T09:46:47;42.70;31.80
82782;DHT22;72517;47.260;11.422;2023-09-19T09:49:26;40.80;33.00
82782;DHT22;72517;47.260;11.422;2023-09-19T09:54:33;37.10;35.90
82782;DHT22;72517;47.260;11.422;2023-09-19T09:57:06;35.90;37.90
82782;DHT22;72517;47.260;11.422;2023-09-19T09:59:51;35.70;39.00
82782;DHT22;72517;47.260;11.422;2023-09-19T10:02:29;36.00;39.20
82782;DHT22;72517;47.260;11.422;2023-09-19T10:05:11;36.70;37.90
82782;DHT22;72517;47.260;11.422;2023-09-19T10:07:51;37.10;38.40
82782;DHT22;72517;47.260;11.422;2023-09-19T10:10:38;38.10;37.20
82782;DHT22;72517;47.260;11.422;2023-09-19T10:13:20;38.80;36.20
82782;DHT22;72517;47.260;11.422;2023-09-19T10:15:52;39.30;36.10
82782;DHT22;72517;47.260;11.422;2023-09-19T10:18:21;38.90;35.80
82782;DHT22;72517;47.260;11.422;2023-09-19T10:20:49;38.50;35.60
82782;DHT22;72517;47.260;11.422;2023-09-19T10:23:18;38.40;35.00
82782;DHT22;72517;47.260;11.422;2023-09-19T10:25:48;39.50;34.90
82782;DHT22;72517;47.260;11.422;2023-09-19T10:28:16;40.50;33.80
82782;DHT22;72517;47.260;11.422;2023-09-19T10:30:49;42.90;33.10
82782;DHT22;72517;47.260;11.422;2023-09-19T10:33:19;42.70;31.40
82782;DHT22;72517;47.260;11.422;2023-09-19T10:35:48;43.70;30.60
82782;DHT22;72517;47.260;11.422;2023-09-19T10:38:23;43.00;30.60
82782;DHT22;72517;47.260;11.422;2023-09-19T10:40:55;44.50;31.60
82782;DHT22;72517;47.260;11.422;2023-09-19T10:43:35;46.50;30.30
82782;DHT22;72517;47.260;11.422;2023-09-19T10:46:07;48.40;29.10
82782;DHT22;72517;47.260;11.422;2023-09-19T10:48:36;49.90;28.40
82782;DHT22;72517;47.260;11.422;2023-09-19T10:51:25;51.50;28.30
82782;DHT22;72517;47.260;11.422;2023-09-19T10:54:05;52.50;26.70
82782;DHT22;72517;47.260;11.422;2023-09-19T10:56:38;53.30;26.70
82782;DHT22;72517;47.260;11.422;2023-09-19T10:59:11;53.90;26.90
82782;DHT22;72517;47.260;11.422;2023-09-19T11:01:51;54.40;26.00
82782;DHT22;72517;47.260;11.422;2023-09-19T11:07:04;55.20;25.50
82782;DHT22;72517;47.260;11.422;2023-09-19T11:26:44;39.90;30.70
82782;DHT22;72517;47.260;11.422;2023-09-19T11:29:30;39.10;31.50
82782;DHT22;72517;47.260;11.422;2023-09-19T11:31:58;40.30;31.90
82782;DHT22;72517;47.260;11.422;2023-09-19T11:39:38;45.10;29.30
82782;DHT22;72517;47.260;11.422;2023-09-19T11:48:18;48.40;27.30
82782;DHT22;72517;47.260;11.422;2023-09-19T11:50:45;48.40;27.60
82782;DHT22;72517;47.260;11.422;2023-09-19T11:53:12;48.80;27.40
82782;DHT22;72517;47.260;11.422;2023-09-19T11:55:43;48.30;27.30
82782;DHT22;72517;47.260;11.422;2023-09-19T11:58:17;46.60;26.80
82782;DHT22;72517;47.260;11.422;2023-09-19T12:00:45;44.20;27.50
82782;DHT22;72517;47.260;11.422;2023-09-19T12:03:21;41.80;29.70
82782;DHT22;72517;47.260;11.422;2023-09-19T12:05:49;39.80;30.30
82782;DHT22;72517;47.260;11.422;2023-09-19T12:08:17;38.50;31.30
82782;DHT22;72517;47.260;11.422;2023-09-19T12:10:50;37.50;32.40
82782;DHT22;72517;47.260;11.422;2023-09-19T12:13:18;36.80;34.50
82782;DHT22;72517;47.260;11.422;2023-09-19T12:15:46;36.00;35.00
82782;DHT22;72517;47.260;11.422;2023-09-19T12:18:31;35.20;34.80
82782;DHT22;72517;47.260;11.422;2023-09-19T12:21:01;34.30;35.60
82782;DHT22;72517;47.260;11.422;2023-09-19T12:23:30;33.50;36.50
82782;DHT22;72517;47.260;11.422;2023-09-19T12:25:58;32.70;37.70
82782;DHT22;72517;47.260;11.422;2023-09-19T12:28:27;32.10;39.10
82782;DHT22;72517;47.260;11.422;2023-09-19T12:30:55;31.50;40.70
82782;DHT22;72517;47.260;11.422;2023-09-19T12:33:23;31.10;40.70
82782;DHT22;72517;47.260;11.422;2023-09-19T12:35:51;30.80;41.20
82782;DHT22;72517;47.260;11.422;2023-09-19T12:38:28;30.40;41.60
82782;DHT22;72517;47.260;11.422;2023-09-19T12:40:59;30.20;42.00
82782;DHT22;72517;47.260;11.422;2023-09-19T12:43:28;29.90;42.20
82782;DHT22;72517;47.260;11.422;2023-09-19T12:45:58;29.80;42.30
82782;DHT22;72517;47.260;11.422;2023-09-19T12:48:26;29.80;42.40
82782;DHT22;72517;47.260;11.422;2023-09-19T12:51:08;29.80;43.00
82782;DHT22;72517;47.260;11.422;2023-09-19T12:53:39;29.80;43.40
82782;DHT22;72517;47.260;11.422;2023-09-19T12:56:08;29.80;44.20
82782;DHT22;72517;47.260;11.422;2023-09-19T12:59:02;29.80;43.20
82782;DHT22;72517;47.260;11.422;2023-09-19T13:01:32;29.70;43.70
82782;DHT22;72517;47.260;11.422;2023-09-19T13:06:40;29.20;43.80
82782;DHT22;72517;47.260;11.422;2023-09-19T13:09:09;29.00;44.00
82782;DHT22;72517;47.260;11.422;2023-09-19T13:11:37;28.70;44.60
82782;DHT22;72517;47.260;11.422;2023-09-19T13:14:22;28.70;45.30
82782;DHT22;72517;47.260;11.422;2023-09-19T13:16:57;28.50;45.60
82782;DHT22;72517;47.260;11.422;2023-09-19T13:19:54;28.40;45.10
82782;DHT22;72517;47.260;11.422;2023-09-19T13:22:43;28.10;45.70
82782;DHT22;72517;47.260;11.422;2023-09-19T13:25:18;27.90;45.80
82782;DHT22;72517;47.260;11.422;2023-09-19T13:30:18;27.50;45.70
82782;DHT22;72517;47.260;11.422;2023-09-19T13:32:45;27.40;46.50
82782;DHT22;72517;47.260;11.422;2023-09-19T13:35:13;27.30;47.50
82782;DHT22;72517;47.260;11.422;2023-09-19T13:37:41;27.10;46.80
82782;DHT22;72517;47.260;11.422;2023-09-19T13:40:09;27.10;46.90
82782;DHT22;72517;47.260;11.422;2023-09-19T13:42:37;27.10;47.40
82782;DHT22;72517;47.260;11.422;2023-09-19T13:45:04;27.10;47.80
82782;DHT22;72517;47.260;11.422;2023-09-19T13:47:32;27.20;48.70
82782;DHT22;72517;47.260;11.422;2023-09-19T13:50:01;27.20;47.90
82782;DHT22;72517;47.260;11.422;2023-09-19T13:52:33;27.30;48.80
82782;DHT22;72517;47.260;11.422;2023-09-19T13:54:59;27.30;48.20
82782;DHT22;72517;47.260;11.422;2023-09-19T13:57:27;27.30;47.80
82782;DHT22;72517;47.260;11.422;2023-09-19T13:59:55;27.30;48.60
82782;DHT22;72517;47.260;11.422;2023-09-19T14:02:22;27.20;47.50
82782;DHT22;72517;47.260;11.422;2023-09-19T14:04:53;27.00;46.40
82782;DHT22;72517;47.260;11.422;2023-09-19T14:07:20;26.80;47.60
82782;DHT22;72517;47.260;11.422;2023-09-19T14:09:47;26.70;48.40
82782;DHT22;72517;47.260;11.422;2023-09-19T14:12:15;26.50;49.00
82782;DHT22;72517;47.260;11.422;2023-09-19T14:14:42;26.40;48.30
82782;DHT22;72517;47.260;11.422;2023-09-19T14:17:11;26.40;48.50
82782;DHT22;72517;47.260;11.422;2023-09-19T14:19:41;26.30;48.90
82782;DHT22;72517;47.260;11.422;2023-09-19T14:22:09;26.20;47.80
82782;DHT22;72517;47.260;11.422;2023-09-19T14:24:36;26.00;49.10
82782;DHT22;72517;47.260;11.422;2023-09-19T14:27:04;25.90;48.60
82782;DHT22;72517;47.260;11.422;2023-09-19T14:29:32;25.80;48.70
82782;DHT22;72517;47.260;11.422;2023-09-19T14:31:58;25.60;48.60
82782;DHT22;72517;47.260;11.422;2023-09-19T14:34:25;25.60;49.60
82782;DHT22;72517;47.260;11.422;2023-09-19T14:36:52;25.50;49.60
82782;DHT22;72517;47.260;11.422;2023-09-19T14:39:19;25.40;49.70
82782;DHT22;72517;47.260;11.422;2023-09-19T14:41:46;25.30;49.40
82782;DHT22;72517;47.260;11.422;2023-09-19T14:44:13;25.20;49.40
82782;DHT22;72517;47.260;11.422;2023-09-19T14:46:41;25.20;50.10
82782;DHT22;72517;47.260;11.422;2023-09-19T14:49:09;25.00;50.80
82782;DHT22;72517;47.260;11.422;2023-09-19T14:51:37;25.00;50.70
82782;DHT22;72517;47.260;11.422;2023-09-19T14:54:05;24.80;51.50
82782;DHT22;72517;47.260;11.422;2023-09-19T14:56:33;24.70;51.10
82782;DHT22;72517;47.260;11.422;2023-09-19T14:59:00;24.50;51.30
82782;DHT22;72517;47.260;11.422;2023-09-19T15:01:28;24.40;51.60
82782;DHT22;72517;47.260;11.422;2023-09-19T15:03:55;24.30;52.10
82782;DHT22;72517;47.260;11.422;2023-09-19T15:06:22;24.20;52.20
82782;DHT22;72517;47.260;11.422;2023-09-19T15:08:49;24.10;52.80
82782;DHT22;72517;47.260;11.422;2023-09-19T15:11:19;24.10;52.70
82782;DHT22;72517;47.260;11.422;2023-09-19T15:13:47;23.90;53.00
82782;DHT22;72517;47.260;11.422;2023-09-19T15:16:14;23.90;53.30
82782;DHT22;72517;47.260;11.422;2023-09-19T15:18:44;23.80;53.60
82782;DHT22;72517;47.260;11.422;2023-09-19T15:21:13;23.80;54.50
82782;DHT22;72517;47.260;11.422;2023-09-19T15:23:42;23.70;55.50
82782;DHT22;72517;47.260;11.422;2023-09-19T15:26:13;23.70;55.60
82782;DHT22;72517;47.260;11.422;2023-09-19T15:28:42;23.70;55.90
82782;DHT22;72517;47.260;11.422;2023-09-19T15:31:13;23.60;55.70
82782;DHT22;72517;47.260;11.422;2023-09-19T15:33:40;23.50;55.30
82782;DHT22;72517;47.260;11.422;2023-09-19T15:36:07;23.50;55.70
82782;DHT22;72517;47.260;11.422;2023-09-19T15:38:57;23.40;56.40
82782;DHT22;72517;47.260;11.422;2023-09-19T15:41:25;23.40;56.70
82782;DHT22;72517;47.260;11.422;2023-09-19T15:43:53;23.30;56.90
82782;DHT22;72517;47.260;11.422;2023-09-19T15:46:21;23.20;57.10
82782;DHT22;72517;47.260;11.422;2023-09-19T15:48:47;23.10;57.10
82782;DHT22;72517;47.260;11.422;2023-09-19T15:51:15;23.00;57.40
82782;DHT22;72517;47.260;11.422;2023-09-19T15:53:46;23.00;57.90
82782;DHT22;72517;47.260;11.422;2023-09-19T15:56:14;22.80;57.80
82782;DHT22;72517;47.260;11.422;2023-09-19T15:58:44;22.80;58.30
82782;DHT22;72517;47.260;11.422;2023-09-19T16:01:12;22.70;59.30
82782;DHT22;72517;47.260;11.422;2023-09-19T16:03:43;22.60;58.80
82782;DHT22;72517;47.260;11.422;2023-09-19T16:06:11;22.50;59.00
82782;DHT22;72517;47.260;11.422;2023-09-19T16:08:43;22.50;58.90
82782;DHT22;72517;47.260;11.422;2023-09-19T16:11:10;22.40;59.10
82782;DHT22;72517;47.260;11.422;2023-09-19T16:13:38;22.30;59.20
82782;DHT22;72517;47.260;11.422;2023-09-19T16:16:07;22.30;59.20
82782;DHT22;72517;47.260;11.422;2023-09-19T16:18:38;22.20;59.50
82782;DHT22;72517;47.260;11.422;2023-09-19T16:21:08;22.20;59.90